createdAt,value
2022-10-12T00:01:26.116Z,96834.91
2022-10-12T00:03:53.858Z,96825.69
2022-10-12T00:06:23.746Z,96833.81
2022-10-12T00:08:54.153Z,96827.56
2022-10-12T00:11:24.564Z,96832.19
2022-10-12T00:13:52.999Z,96829.00
2022-10-12T00:16:24.084Z,96832.03
2022-10-12T00:18:52.364Z,96829.34
2022-10-12T00:21:20.805Z,96831.22
2022-10-12T00:23:48.912Z,96838.88
2022-10-12T00:26:19.497Z,96830.75
2022-10-12T00:28:48.154Z,96831.53
2022-10-12T00:31:17.469Z,96833.94
2022-10-12T00:33:47.794Z,96838.56
2022-10-12T00:36:17.924Z,96838.28
2022-10-12T00:38:46.216Z,96838.75
2022-10-12T00:41:14.782Z,96839.53
2022-10-12T00:43:44.471Z,96836.81
2022-10-12T00:46:18.485Z,96836.03
2022-10-12T00:48:51.525Z,96822.47
2022-10-12T00:51:22.608Z,96824.38
2022-10-12T00:53:57.274Z,96827.41
2022-10-12T00:56:28.854Z,96836.97
2022-10-12T00:59:01.678Z,96831.34
2022-10-12T01:01:30.798Z,96840.31
2022-10-12T01:03:59.956Z,96841.13
2022-10-12T01:06:28.028Z,96839.50
2022-10-12T01:08:56.225Z,96827.84
2022-10-12T01:11:23.898Z,96832.47
2022-10-12T01:13:51.619Z,96832.47
2022-10-12T01:16:24.023Z,96837.09
2022-10-12T01:18:58.568Z,96833.13
2022-10-12T01:21:28.027Z,96832.59
2022-10-12T01:24:36.737Z,96840.28
2022-10-12T01:27:17.321Z,96827.78
2022-10-12T01:30:07.939Z,96828.91
2022-10-12T01:32:44.446Z,96824.13
2022-10-12T01:35:20.283Z,96823.94
2022-10-12T01:37:54.636Z,96822.63
2022-10-12T01:40:28.616Z,96817.72
2022-10-12T01:42:58.371Z,96821.09
2022-10-12T01:45:27.443Z,96826.06
2022-10-12T01:47:56.259Z,96819.06
2022-10-12T01:50:28.843Z,96829.56
2022-10-12T01:53:02.407Z,96820.34
2022-10-12T01:55:38.230Z,96814.94
2022-10-12T01:58:21.103Z,96827.69
2022-10-12T02:00:56.474Z,96823.06
2022-10-12T02:03:34.869Z,96823.06
2022-10-12T02:06:06.229Z,96824.34
2022-10-12T02:08:38.859Z,96821.34
2022-10-12T02:11:10.500Z,96826.75
2022-10-12T02:13:43.023Z,96824.84
2022-10-12T02:16:16.414Z,96825.63
2022-10-12T02:18:46.715Z,96828.34
2022-10-12T02:21:19.031Z,96822.59
2022-10-12T02:23:49.537Z,96830.75
2022-10-12T02:26:18.742Z,96822.59
2022-10-12T02:28:46.664Z,96818.78
2022-10-12T02:31:25.771Z,96810.63
2022-10-12T02:34:01.415Z,96817.66
2022-10-12T02:36:38.176Z,96806.00
2022-10-12T02:39:11.695Z,96804.91
2022-10-12T02:41:45.579Z,96801.28
2022-10-12T02:44:16.031Z,96807.31
2022-10-12T02:46:49.087Z,96801.88
2022-10-12T02:49:18.488Z,96800.44
2022-10-12T02:51:47.249Z,96808.28
2022-10-12T02:54:16.070Z,96798.22
2022-10-12T02:56:45.602Z,96804.31
2022-10-12T02:59:14.089Z,96797.31
2022-10-12T03:01:42.926Z,96797.63
2022-10-12T03:04:12.001Z,96793.00
2022-10-12T03:06:39.796Z,96790.91
2022-10-12T03:09:07.717Z,96792.00
2022-10-12T03:11:36.616Z,96795.03
2022-10-12T03:14:04.739Z,96798.06
2022-10-12T03:16:32.473Z,96791.34
2022-10-12T03:19:00.237Z,96793.25
2022-10-12T03:21:29.350Z,96798.66
2022-10-12T03:23:57.071Z,96795.66
2022-10-12T03:26:24.868Z,96789.88
2022-10-12T03:28:52.635Z,96794.50
2022-10-12T03:31:20.658Z,96797.03
2022-10-12T03:33:48.374Z,96808.19
2022-10-12T03:36:16.367Z,96796.22
2022-10-12T03:38:45.504Z,96798.47
2022-10-12T03:41:13.235Z,96791.44
2022-10-12T03:43:40.884Z,96793.38
2022-10-12T03:46:08.766Z,96800.38
2022-10-12T03:48:36.570Z,96791.75
2022-10-12T03:51:04.383Z,96794.78
2022-10-12T03:53:32.305Z,96793.19
2022-10-12T03:56:01.431Z,96791.88
2022-10-12T03:58:29.215Z,96800.34
2022-10-12T04:00:57.252Z,96801.75
2022-10-12T04:03:25.007Z,96802.06
2022-10-12T04:05:56.139Z,96798.56
2022-10-12T04:08:24.620Z,96801.25
2022-10-12T04:10:52.614Z,96800.47
2022-10-12T04:13:21.868Z,96808.91
2022-10-12T04:15:49.628Z,96810.81
2022-10-12T04:18:17.673Z,96805.09
2022-10-12T04:20:49.027Z,96808.91
2022-10-12T04:23:16.999Z,96800.28
2022-10-12T04:25:44.826Z,96803.78
2022-10-12T04:28:12.730Z,96804.13
2022-10-12T04:30:41.853Z,96806.03
2022-10-12T04:33:09.565Z,96814.16
2022-10-12T04:35:37.293Z,96814.16
2022-10-12T04:38:05.540Z,96812.25
2022-10-12T04:40:33.324Z,96816.88
2022-10-12T04:43:01.106Z,96811.44
2022-10-12T04:45:28.826Z,96816.56
2022-10-12T04:47:57.955Z,96817.97
2022-10-12T04:50:29.862Z,96820.66
2022-10-12T04:52:58.191Z,96822.28
2022-10-12T04:55:25.965Z,96828.00
2022-10-12T04:57:53.750Z,96827.72
2022-10-12T05:00:21.764Z,96815.25
2022-10-12T05:02:49.545Z,96822.28
2022-10-12T05:05:18.754Z,96817.97
2022-10-12T05:07:46.500Z,96821.97
2022-10-12T05:10:14.401Z,96827.41
2022-10-12T05:12:42.634Z,96825.81
2022-10-12T05:15:11.476Z,96823.88
2022-10-12T05:17:39.770Z,96828.50
2022-10-12T05:20:09.350Z,96830.91
2022-10-12T05:22:38.668Z,96832.03
2022-10-12T05:25:07.815Z,96833.94
2022-10-12T05:27:35.962Z,96821.19
2022-10-12T05:30:04.198Z,96825.47
2022-10-12T05:32:31.981Z,96830.91
2022-10-12T05:34:59.748Z,96835.22
2022-10-12T05:37:27.563Z,96835.22
2022-10-12T05:39:56.649Z,96831.41
2022-10-12T05:42:25.541Z,96833.00
2022-10-12T05:44:53.335Z,96837.31
2022-10-12T05:47:21.256Z,96839.22
2022-10-12T05:49:48.996Z,96833.81
2022-10-12T05:52:16.895Z,96840.50
2022-10-12T05:54:44.894Z,96835.06
2022-10-12T05:57:15.252Z,96840.81
2022-10-12T05:59:43.251Z,96836.19
2022-10-12T06:02:14.871Z,96848.63
2022-10-12T06:04:43.053Z,96844.84
2022-10-12T06:07:10.873Z,96842.94
2022-10-12T06:09:39.540Z,96855.03
2022-10-12T06:12:07.973Z,96851.25
2022-10-12T06:14:37.343Z,96846.31
2022-10-12T06:17:05.243Z,96847.09
2022-10-12T06:19:33.336Z,96840.09
2022-10-12T06:22:01.155Z,96847.41
2022-10-12T06:24:29.011Z,96847.72
2022-10-12T06:26:56.920Z,96843.59
2022-10-12T06:29:24.927Z,96851.41
2022-10-12T06:31:54.207Z,96856.22
2022-10-12T06:34:22.320Z,96850.47
2022-10-12T06:36:50.167Z,96856.69
2022-10-12T06:39:17.995Z,96857.53
2022-10-12T06:41:46.507Z,96855.63
2022-10-12T06:44:14.308Z,96866.94
2022-10-12T06:46:42.077Z,96865.81
2022-10-12T06:49:11.468Z,96858.47
2022-10-12T06:51:39.229Z,96863.91
2022-10-12T06:54:07.006Z,96861.19
2022-10-12T06:56:35.066Z,96866.31
2022-10-12T06:59:02.827Z,96865.03
2022-10-12T07:01:30.694Z,96870.44
2022-10-12T07:04:00.885Z,96867.72
2022-10-12T07:06:30.339Z,96872.56
2022-10-12T07:08:58.148Z,96866.81
2022-10-12T07:11:25.879Z,96866.19
2022-10-12T07:13:53.693Z,96874.81
2022-10-12T07:16:21.461Z,96872.59
2022-10-12T07:18:49.219Z,96878.19
2022-10-12T07:21:17.345Z,96875.19
2022-10-12T07:23:46.604Z,96879.16
2022-10-12T07:26:14.430Z,96878.88
2022-10-12T07:28:42.277Z,96883.66
2022-10-12T07:31:10.680Z,96876.81
2022-10-12T07:33:39.593Z,96878.94
2022-10-12T07:36:20.918Z,96885.31
2022-10-12T07:38:51.049Z,96877.84
2022-10-12T07:41:19.136Z,96878.97
2022-10-12T07:43:46.892Z,96880.47
2022-10-12T07:46:14.819Z,96878.09
2022-10-12T07:48:48.887Z,96880.66
2022-10-12T07:51:17.668Z,96889.78
2022-10-12T07:53:45.514Z,96879.88
2022-10-12T07:56:18.759Z,96889.81
2022-10-12T07:58:50.137Z,96889.69
2022-10-12T08:01:19.572Z,96884.44
2022-10-12T08:03:47.633Z,96893.84
2022-10-12T08:06:17.636Z,96890.06
2022-10-12T08:08:46.128Z,96892.44
2022-10-12T08:11:16.601Z,96896.75
2022-10-12T08:13:44.528Z,96898.06
2022-10-12T08:16:14.987Z,96897.72
2022-10-12T08:18:43.291Z,96902.69
2022-10-12T08:21:12.761Z,96901.06
2022-10-12T08:23:41.225Z,96896.75
2022-10-12T08:26:09.301Z,96894.34
2022-10-12T08:28:38.428Z,96901.38
2022-10-12T08:31:11.169Z,96890.69
2022-10-12T08:33:38.979Z,96892.13
2022-10-12T08:36:07.919Z,96896.81
2022-10-12T08:38:38.515Z,96895.84
2022-10-12T08:41:18.486Z,96895.38
2022-10-12T08:44:05.214Z,96890.28
2022-10-12T08:46:33.536Z,96882.75
2022-10-12T08:49:05.113Z,96885.31
2022-10-12T08:51:40.308Z,96878.59
2022-10-12T08:54:12.467Z,96886.28
2022-10-12T08:56:41.252Z,96891.56
2022-10-12T08:59:14.486Z,96885.97
2022-10-12T09:01:58.397Z,96890.63
2022-10-12T09:04:40.186Z,96901.63
2022-10-12T09:07:15.890Z,96902.28
2022-10-12T09:09:57.809Z,96904.84
2022-10-12T09:12:40.168Z,96899.69
2022-10-12T09:15:17.199Z,96896.63
2022-10-12T09:17:48.531Z,96898.09
2022-10-12T09:20:21.799Z,96897.94
2022-10-12T09:22:51.529Z,96905.94
2022-10-12T09:25:23.714Z,96899.69
2022-10-12T09:27:52.219Z,96910.03
2022-10-12T09:30:22.649Z,96911.78
2022-10-12T09:33:17.822Z,96912.91
2022-10-12T09:35:47.202Z,96916.59
2022-10-12T09:38:15.305Z,96917.38
2022-10-12T09:40:43.302Z,96919.44
2022-10-12T09:43:11.148Z,96914.28
2022-10-12T09:45:40.715Z,96914.91
2022-10-12T09:48:18.240Z,96915.19
2022-10-12T09:50:50.057Z,96911.78
2022-10-12T09:53:26.850Z,96910.59
2022-10-12T09:55:57.839Z,96905.09
2022-10-12T09:58:27.680Z,96906.53
2022-10-12T10:01:21.856Z,96903.97
2022-10-12T10:03:51.957Z,96899.31
2022-10-12T10:06:26.398Z,96902.66
2022-10-12T10:08:55.082Z,96892.06
2022-10-12T10:11:26.889Z,96891.19
2022-10-12T10:13:55.875Z,96893.72
2022-10-12T10:16:27.517Z,96901.91
2022-10-12T10:19:00.560Z,96900.13
2022-10-12T10:21:32.856Z,96906.03
2022-10-12T10:24:02.856Z,96899.78
2022-10-12T10:26:51.413Z,96906.03
2022-10-12T10:29:31.819Z,96904.25
2022-10-12T10:32:23.993Z,96897.19
2022-10-12T10:35:03.626Z,96900.25
2022-10-12T10:37:32.587Z,96898.34
2022-10-12T10:40:01.038Z,96906.16
2022-10-12T10:42:31.940Z,96904.25
2022-10-12T10:45:02.346Z,96907.31
2022-10-12T10:47:33.627Z,96903.00
2022-10-12T10:50:03.779Z,96909.75
2022-10-12T10:52:34.020Z,96905.78
2022-10-12T10:55:19.030Z,96899.03
2022-10-12T10:57:55.120Z,96900.19
2022-10-12T11:00:38.560Z,96906.28
2022-10-12T11:03:18.577Z,96900.03
2022-10-12T11:05:51.553Z,96898.91
2022-10-12T11:08:23.831Z,96890.06
2022-10-12T11:10:57.315Z,96896.78
2022-10-12T11:13:29.422Z,96884.06
2022-10-12T11:16:01.023Z,96879.25
2022-10-12T11:18:38.415Z,96878.91
2022-10-12T11:21:12.618Z,96879.84
2022-10-12T11:23:46.597Z,96879.16
2022-10-12T11:26:25.486Z,96880.06
2022-10-12T11:28:55.846Z,96880.06
2022-10-12T11:31:27.791Z,96880.56
2022-10-12T11:34:03.293Z,96880.56
2022-10-12T11:36:33.355Z,96880.56
2022-10-12T11:39:07.047Z,96884.53
2022-10-12T11:42:03.131Z,96874.41
2022-10-12T11:44:41.884Z,96873.41
2022-10-12T11:47:17.348Z,96865.84
2022-10-12T11:49:54.919Z,96871.53
2022-10-12T11:52:28.561Z,96869.41
2022-10-12T11:55:06.390Z,96861.03
2022-10-12T11:57:38.636Z,96861.94
2022-10-12T12:00:18.133Z,96858.19
2022-10-12T12:02:54.730Z,96861.84
2022-10-12T12:05:24.041Z,96862.31
2022-10-12T12:07:54.326Z,96855.06
2022-10-12T12:10:44.627Z,96860.63
2022-10-12T12:13:22.982Z,96868.59
2022-10-12T12:16:31.862Z,96866.00
2022-10-12T12:19:16.427Z,96851.19
2022-10-12T12:22:23.389Z,96858.84
2022-10-12T12:24:58.013Z,96854.06
2022-10-12T12:27:32.954Z,96847.78
2022-10-12T12:30:02.800Z,96848.25
2022-10-12T12:32:44.375Z,96845.06
2022-10-12T12:35:21.319Z,96844.13
2022-10-12T12:37:58.653Z,96843.69
2022-10-12T12:40:26.424Z,96840.97
2022-10-12T12:42:54.227Z,96842.78
2022-10-12T12:45:42.097Z,96840.03
2022-10-12T12:48:11.423Z,96847.75
2022-10-12T12:50:41.661Z,96855.94
2022-10-12T12:53:16.878Z,96845.84
2022-10-12T12:56:06.321Z,96845.50
2022-10-12T12:58:47.221Z,96846.16
2022-10-12T13:01:29.506Z,96838.31
2022-10-12T13:04:15.401Z,96844.56
2022-10-12T13:07:08.582Z,96845.72
2022-10-12T13:09:51.809Z,96848.44
2022-10-12T13:12:32.587Z,96842.06
2022-10-12T13:15:24.836Z,96840.94
2022-10-12T13:18:45.952Z,96834.00
2022-10-12T13:21:18.115Z,96842.28
2022-10-12T13:23:48.807Z,96837.97
2022-10-12T13:26:23.370Z,96826.72
2022-10-12T13:28:53.003Z,96833.78
2022-10-12T13:31:24.943Z,96834.22
2022-10-12T13:34:00.627Z,96827.19
2022-10-12T13:36:31.737Z,96816.59
2022-10-12T13:39:01.176Z,96826.72
2022-10-12T13:41:32.798Z,96822.88
2022-10-12T13:44:04.957Z,96819.00
2022-10-12T13:46:40.628Z,96810.13
2022-10-12T13:49:17.145Z,96823.00
2022-10-12T13:51:47.059Z,96811.25
2022-10-12T13:54:19.802Z,96819.13
2022-10-12T13:56:51.733Z,96819.13
2022-10-12T13:59:22.832Z,96816.59
2022-10-12T14:01:57.356Z,96820.81
2022-10-12T14:04:29.156Z,96813.75
2022-10-12T14:07:01.741Z,96814.88
2022-10-12T14:09:37.463Z,96817.94
2022-10-12T14:12:06.910Z,96818.41
2022-10-12T14:14:37.380Z,96817.94
2022-10-12T14:17:05.425Z,96812.03
2022-10-12T14:19:36.960Z,96809.31
2022-10-12T14:22:04.900Z,96805.78
2022-10-12T14:24:34.316Z,96816.00
2022-10-12T14:27:03.797Z,96809.31
2022-10-12T14:29:42.826Z,96809.31
2022-10-12T14:32:42.393Z,96800.09
2022-10-12T14:35:22.547Z,96808.63
2022-10-12T14:37:51.742Z,96799.63
2022-10-12T14:40:40.672Z,96798.16
2022-10-12T14:43:24.115Z,96799.31
2022-10-12T14:45:53.334Z,96803.63
2022-10-12T14:48:23.417Z,96801.34
2022-10-12T14:50:51.645Z,96804.06
2022-10-12T14:53:19.392Z,96800.88
2022-10-12T14:55:49.704Z,96795.44
2022-10-12T14:58:20.084Z,96793.84
2022-10-12T15:00:47.859Z,96787.91
2022-10-12T15:03:17.951Z,96791.56
2022-10-12T15:05:45.656Z,96799.44
2022-10-12T15:08:13.372Z,96797.81
2022-10-12T15:10:41.061Z,96795.06
2022-10-12T15:13:13.227Z,96786.31
2022-10-12T15:15:43.957Z,96791.34
2022-10-12T15:18:11.997Z,96780.28
2022-10-12T15:20:45.393Z,96784.03
2022-10-12T15:23:16.113Z,96780.16
2022-10-12T15:25:48.815Z,96787.78
2022-10-12T15:28:16.748Z,96780.94
2022-10-12T15:31:12.200Z,96784.69
2022-10-12T15:33:34.681Z,96788.28
2022-10-12T15:36:03.789Z,96786.22
2022-10-12T15:38:31.606Z,96782.13
2022-10-12T15:40:59.477Z,96778.81
2022-10-12T15:43:27.607Z,96785.28
2022-10-12T15:45:56.702Z,96785.81
2022-10-12T15:48:24.432Z,96787.94
2022-10-12T15:50:52.330Z,96782.25
2022-10-12T15:53:24.682Z,96788.72
2022-10-12T15:55:53.097Z,96788.91
2022-10-12T15:58:21.506Z,96787.16
2022-10-12T16:00:49.703Z,96795.50
2022-10-12T16:03:24.572Z,96789.47
2022-10-12T16:05:53.704Z,96786.16
2022-10-12T16:08:24.068Z,96784.75
2022-10-12T16:10:51.921Z,96787.69
2022-10-12T16:13:19.950Z,96785.16
2022-10-12T16:15:47.752Z,96785.31
2022-10-12T16:18:16.734Z,96783.94
2022-10-12T16:20:49.734Z,96785.25
2022-10-12T16:23:24.764Z,96778.88
2022-10-12T16:25:52.805Z,96782.25
2022-10-12T16:28:20.766Z,96787.09
2022-10-12T16:30:49.046Z,96776.38
2022-10-12T16:33:17.216Z,96780.75
2022-10-12T16:35:45.198Z,96780.47
2022-10-12T16:38:14.685Z,96779.38
2022-10-12T16:40:44.109Z,96777.63
2022-10-12T16:43:12.297Z,96787.91
2022-10-12T16:45:40.078Z,96781.19
2022-10-12T16:48:07.970Z,96783.00
2022-10-12T16:50:39.918Z,96780.91
2022-10-12T16:53:08.832Z,96780.44
2022-10-12T16:55:38.553Z,96781.38
2022-10-12T16:58:07.740Z,96783.47
2022-10-12T17:00:35.542Z,96791.03
2022-10-12T17:03:03.372Z,96796.97
2022-10-12T17:06:09.030Z,96802.91
2022-10-12T17:09:47.360Z,96810.09
2022-10-12T17:12:15.255Z,96812.53
2022-10-12T17:14:44.605Z,96809.97
2022-10-12T17:17:12.356Z,96802.78
2022-10-12T17:19:40.866Z,96812.72
2022-10-12T17:22:10.651Z,96804.38
2022-10-12T17:24:42.225Z,96793.06
2022-10-12T17:27:12.154Z,96801.03
2022-10-12T17:29:41.055Z,96802.16
2022-10-12T17:32:10.974Z,96805.84
2022-10-12T17:34:43.430Z,96802.97
2022-10-12T17:37:14.992Z,96794.66
2022-10-12T17:39:45.799Z,96809.19
2022-10-12T17:42:14.251Z,96807.16
2022-10-12T17:44:42.211Z,96809.69
2022-10-12T17:47:11.296Z,96802.97
2022-10-12T17:49:39.175Z,96802.00
2022-10-12T17:52:07.531Z,96812.72
2022-10-12T17:54:37.313Z,96816.88
2022-10-12T17:57:06.126Z,96812.41
2022-10-12T17:59:33.953Z,96813.69
2022-10-12T18:02:01.648Z,96810.78
2022-10-12T18:04:30.729Z,96809.66
2022-10-12T18:06:58.476Z,96813.31
2022-10-12T18:09:26.248Z,96810.44
2022-10-12T18:12:06.648Z,96803.84
2022-10-12T18:14:34.359Z,96809.91
2022-10-12T18:17:02.067Z,96805.91
2022-10-12T18:19:32.471Z,96808.47
2022-10-12T18:22:00.257Z,96806.69
2022-10-12T18:24:29.061Z,96809.56
2022-10-12T18:26:56.815Z,96814.00
2022-10-12T18:29:25.612Z,96809.34
2022-10-12T18:31:54.064Z,96812.16
2022-10-12T18:34:21.933Z,96801.59
2022-10-12T18:37:00.352Z,96810.16
2022-10-12T18:39:28.163Z,96815.88
2022-10-12T18:41:55.904Z,96804.81
2022-10-12T18:44:23.705Z,96807.50
2022-10-12T18:46:51.457Z,96804.72
2022-10-12T18:49:19.172Z,96808.53
2022-10-12T18:51:48.560Z,96805.16
2022-10-12T18:54:18.020Z,96805.78
2022-10-12T18:56:45.904Z,96806.84
2022-10-12T18:59:17.432Z,96805.66
2022-10-12T19:01:47.720Z,96803.34
2022-10-12T19:04:15.519Z,96811.94
2022-10-12T19:06:44.384Z,96814.72
2022-10-12T19:09:14.144Z,96816.84
2022-10-12T19:11:43.244Z,96815.38
2022-10-12T19:14:14.685Z,96811.47
2022-10-12T19:16:43.767Z,96813.19
2022-10-12T19:19:18.177Z,96817.81
2022-10-12T19:21:48.561Z,96819.50
2022-10-12T19:24:16.455Z,96817.63
2022-10-12T19:26:45.915Z,96818.06
2022-10-12T19:29:14.131Z,96813.06
2022-10-12T19:31:45.234Z,96812.06
2022-10-12T19:34:14.870Z,96812.38
2022-10-12T19:36:42.987Z,96819.69
2022-10-12T19:39:14.913Z,96823.13
2022-10-12T19:41:42.849Z,96821.22
2022-10-12T19:44:12.784Z,96819.91
2022-10-12T19:46:42.589Z,96825.44
2022-10-12T19:49:13.575Z,96811.69
2022-10-12T19:51:41.410Z,96824.44
2022-10-12T19:54:12.395Z,96818.22
2022-10-12T19:56:40.427Z,96807.06
2022-10-12T19:59:08.391Z,96809.00
2022-10-12T20:01:39.044Z,96808.72
2022-10-12T20:04:09.971Z,96814.13
2022-10-12T20:06:39.123Z,96806.91
2022-10-12T20:09:08.461Z,96807.50
2022-10-12T20:11:38.189Z,96804.59
2022-10-12T20:14:07.682Z,96810.59
2022-10-12T20:16:37.342Z,96823.03
2022-10-12T20:19:06.836Z,96825.22
2022-10-12T20:21:36.374Z,96817.84
2022-10-12T20:24:04.950Z,96816.53
2022-10-12T20:26:32.759Z,96818.53
2022-10-12T20:29:01.596Z,96818.09
2022-10-12T20:31:29.544Z,96819.63
2022-10-12T20:33:58.706Z,96826.13
2022-10-12T20:36:28.757Z,96819.72
2022-10-12T20:38:57.767Z,96815.13
2022-10-12T20:41:25.934Z,96817.31
2022-10-12T20:43:55.739Z,96823.31
2022-10-12T20:46:23.764Z,96821.22
2022-10-12T20:48:56.002Z,96813.91
2022-10-12T20:51:29.372Z,96810.97
2022-10-12T20:53:59.193Z,96815.38
2022-10-12T20:56:27.118Z,96809.47
2022-10-12T20:58:55.296Z,96813.63
2022-10-12T21:01:23.448Z,96813.41
2022-10-12T21:03:51.211Z,96809.72
2022-10-12T21:06:20.405Z,96803.59
2022-10-12T21:08:52.302Z,96798.78
2022-10-12T21:11:20.327Z,96801.50
2022-10-12T21:13:48.351Z,96805.22
2022-10-12T21:16:16.656Z,96807.91
2022-10-12T21:18:44.492Z,96802.78
2022-10-12T21:21:13.881Z,96811.69
2022-10-12T21:23:42.765Z,96804.41
2022-10-12T21:26:13.939Z,96809.81
2022-10-12T21:28:42.044Z,96810.97
2022-10-12T21:31:10.357Z,96805.09
2022-10-12T21:33:38.838Z,96805.09
2022-10-12T21:36:08.336Z,96811.19
2022-10-12T21:38:36.334Z,96803.31
2022-10-12T21:41:04.364Z,96791.69
2022-10-12T21:43:33.600Z,96802.59
2022-10-12T21:46:06.041Z,96808.06
2022-10-12T21:48:34.829Z,96803.28
2022-10-12T21:51:03.753Z,96803.75
2022-10-12T21:53:32.006Z,96799.69
2022-10-12T21:55:59.705Z,96799.59
2022-10-12T21:58:27.434Z,96789.78
2022-10-12T22:01:04.982Z,96794.31
2022-10-12T22:03:32.846Z,96796.81
2022-10-12T22:06:00.727Z,96794.19
2022-10-12T22:08:28.575Z,96789.59
2022-10-12T22:10:57.024Z,96791.41
2022-10-12T22:13:24.957Z,96802.19
2022-10-12T22:16:02.715Z,96803.81
2022-10-12T22:18:30.513Z,96798.91
2022-10-12T22:20:58.321Z,96789.19
2022-10-12T22:23:26.161Z,96792.41
2022-10-12T22:25:54.524Z,96790.19
2022-10-12T22:28:22.254Z,96797.19
2022-10-12T22:30:50.052Z,96791.50
2022-10-12T22:33:20.341Z,96795.00
2022-10-12T22:35:54.179Z,96790.09
2022-10-12T22:38:22.354Z,96792.75
2022-10-12T22:40:57.436Z,96784.63
2022-10-12T22:43:25.192Z,96783.84
2022-10-12T22:45:53.448Z,96783.84
2022-10-12T22:48:23.510Z,96778.44
2022-10-12T22:50:51.909Z,96778.44
2022-10-12T22:53:21.239Z,96778.44
2022-10-12T22:55:49.615Z,96778.22
2022-10-12T22:58:17.348Z,96768.78
2022-10-12T23:00:45.142Z,96773.88
2022-10-12T23:03:12.843Z,96775.00
2022-10-12T23:05:48.741Z,96774.69
2022-10-12T23:08:16.490Z,96771.19
2022-10-12T23:10:44.230Z,96766.09
2022-10-12T23:13:11.960Z,96763.97
2022-10-12T23:15:39.727Z,96765.59
2022-10-12T23:18:07.708Z,96763.16
2022-10-12T23:20:40.434Z,96759.88
2022-10-12T23:23:09.690Z,96757.47
2022-10-12T23:25:40.508Z,96759.66
2022-10-12T23:28:09.233Z,96761.56
2022-10-12T23:30:38.396Z,96762.69
2022-10-12T23:33:06.160Z,96755.38
2022-10-12T23:35:33.928Z,96752.44
2022-10-12T23:38:01.661Z,96752.19
2022-10-12T23:40:30.767Z,96751.88
2022-10-12T23:42:58.551Z,96744.34
2022-10-12T23:45:26.321Z,96749.75
2022-10-12T23:47:54.064Z,96748.47
2022-10-12T23:50:21.769Z,96747.34
2022-10-12T23:52:49.467Z,96754.16
2022-10-12T23:55:17.307Z,96746.03
2022-10-12T23:57:47.537Z,96751.75
